createdAt,value
2018-11-11T00:01:07.918Z,9.78
2018-11-11T00:07:02.925Z,9.47
2018-11-11T00:12:57.911Z,9.3
2018-11-11T00:18:52.916Z,9.69
2018-11-11T00:24:47.937Z,9.97
2018-11-11T00:30:42.891Z,15.02
2018-11-11T00:36:37.923Z,17.13
2018-11-11T00:42:32.890Z,16.44
2018-11-11T00:48:27.903Z,13.51
2018-11-11T00:54:22.967Z,13.49
2018-11-11T01:00:17.942Z,10.84
2018-11-11T01:06:12.919Z,10.89
2018-11-11T01:12:07.957Z,9.5
2018-11-11T01:18:02.937Z,9.26
2018-11-11T01:23:57.940Z,10.18
2018-11-11T01:29:52.972Z,10.34
2018-11-11T01:35:47.942Z,10.24
2018-11-11T01:41:42.981Z,10.44
2018-11-11T01:47:37.978Z,10.17
2018-11-11T01:53:32.944Z,10.76
2018-11-11T01:59:27.994Z,12.47
2018-11-11T02:05:23.063Z,12.24
2018-11-11T02:11:17.949Z,13.67
2018-11-11T02:17:13.009Z,17.01
2018-11-11T02:23:07.980Z,17.94
2018-11-11T02:29:02.956Z,20.06
2018-11-11T02:34:57.978Z,20.04
2018-11-11T02:40:52.983Z,22.47
2018-11-11T02:46:48.063Z,22.84
2018-11-11T02:52:42.980Z,21.04
2018-11-11T02:58:38.033Z,20.75
2018-11-11T03:04:33.075Z,20.96
2018-11-11T03:10:28.041Z,23.47
2018-11-11T03:16:23.016Z,21.51
2018-11-11T03:22:18.011Z,22.97
2018-11-11T03:28:13.040Z,23.8
2018-11-11T03:34:08.021Z,23.97
2018-11-11T03:40:03.003Z,24.33
2018-11-11T03:45:58.027Z,24.71
2018-11-11T03:51:53.027Z,23.76
2018-11-11T03:57:48.010Z,25.08
2018-11-11T04:03:43.051Z,24.52
2018-11-11T04:09:38.038Z,23.38
2018-11-11T04:15:33.030Z,24.74
2018-11-11T04:21:28.038Z,24.57
2018-11-11T04:27:23.032Z,23.02
2018-11-11T04:33:18.046Z,24.33
2018-11-11T04:39:13.118Z,24.44
2018-11-11T04:45:08.057Z,25.06
2018-11-11T04:51:03.054Z,23.45
2018-11-11T04:56:58.073Z,24.45
2018-11-11T05:02:53.098Z,23.4
2018-11-11T05:08:48.090Z,24.44
2018-11-11T05:14:43.070Z,23.84
2018-11-11T05:20:38.068Z,24.25
2018-11-11T05:26:33.104Z,23.05
2018-11-11T05:32:28.113Z,23.81
2018-11-11T05:38:23.097Z,22.67
2018-11-11T05:44:18.080Z,24.37
2018-11-11T05:50:13.097Z,25.09
2018-11-11T05:56:08.158Z,22.67
2018-11-11T06:02:03.092Z,23.17
2018-11-11T06:07:58.103Z,25.93
2018-11-11T06:13:53.107Z,26.7
2018-11-11T06:19:48.093Z,26.05
2018-11-11T06:25:43.093Z,27.23
2018-11-11T06:31:38.109Z,25.83
2018-11-11T06:37:33.130Z,27.56
2018-11-11T06:43:28.130Z,27.89
2018-11-11T06:49:23.114Z,30.42
2018-11-11T06:55:18.125Z,29.87
2018-11-11T07:01:13.142Z,30.39
2018-11-11T07:07:08.155Z,31.16
2018-11-11T07:13:03.134Z,38.35
2018-11-11T07:18:58.176Z,39.19
2018-11-11T07:24:53.159Z,38.16
2018-11-11T07:30:48.139Z,37.14
2018-11-11T07:36:43.201Z,38.89
2018-11-11T07:42:38.167Z,34.26
2018-11-11T07:48:33.174Z,33.13
2018-11-11T07:54:28.193Z,32.27
2018-11-11T08:00:23.155Z,30.79
2018-11-11T08:06:18.164Z,31.15
2018-11-11T08:12:13.175Z,31.1
2018-11-11T08:18:08.160Z,29.41
2018-11-11T08:24:03.172Z,30.92
2018-11-11T08:29:58.227Z,31.71
2018-11-11T08:35:53.185Z,33.1
2018-11-11T08:41:48.187Z,35.54
2018-11-11T08:47:43.245Z,47
2018-11-11T08:53:38.268Z,39.89
2018-11-11T08:59:33.200Z,35.54
2018-11-11T09:05:28.191Z,33.57
2018-11-11T09:11:23.255Z,39.28
2018-11-11T09:17:18.257Z,35.33
2018-11-11T09:23:13.220Z,39.23
2018-11-11T09:29:08.268Z,45.85
2018-11-11T09:35:03.239Z,42.25
2018-11-11T09:40:58.245Z,39.9
2018-11-11T09:46:53.230Z,42.46
2018-11-11T09:52:48.344Z,43.02
2018-11-11T09:58:43.320Z,41.77
2018-11-11T10:04:38.259Z,42.81
2018-11-11T10:10:33.234Z,42.09
2018-11-11T10:16:28.233Z,43.81
2018-11-11T10:22:23.241Z,45.95
2018-11-11T10:28:18.255Z,43.69
2018-11-11T10:34:13.320Z,40.24
2018-11-11T10:40:08.283Z,38.15
2018-11-11T10:46:03.261Z,36.81
2018-11-11T10:51:58.279Z,39.43
2018-11-11T10:57:53.253Z,33.93
2018-11-11T11:03:48.302Z,29.9
2018-11-11T11:09:43.266Z,30.02
2018-11-11T11:15:38.305Z,30.38
2018-11-11T11:21:33.333Z,29.21
2018-11-11T11:27:28.269Z,28.64
2018-11-11T11:33:23.281Z,26.94
2018-11-11T11:39:18.288Z,25.5
2018-11-11T11:45:13.294Z,25.17
2018-11-11T11:51:08.327Z,25.36
2018-11-11T11:57:03.294Z,24.77
2018-11-11T12:02:58.366Z,24.73
2018-11-11T12:08:53.458Z,25.19
2018-11-11T12:14:48.381Z,29.04
2018-11-11T12:20:43.315Z,27.33
2018-11-11T12:26:38.345Z,26.36
2018-11-11T12:32:33.360Z,27.03
2018-11-11T12:38:28.373Z,30.63
2018-11-11T12:44:23.381Z,29.06
2018-11-11T12:50:18.498Z,30.33
2018-11-11T12:56:13.349Z,27.66
2018-11-11T13:02:08.366Z,29.85
2018-11-11T13:08:03.520Z,30.66
2018-11-11T13:13:58.517Z,29.24
2018-11-11T13:19:53.476Z,29.57
2018-11-11T13:25:48.366Z,29.44
2018-11-11T13:31:43.467Z,28.08
2018-11-11T13:37:38.422Z,29.98
2018-11-11T13:43:33.386Z,29.9
2018-11-11T13:49:28.370Z,31.09
2018-11-11T13:55:23.471Z,30.76
2018-11-11T14:01:18.379Z,30.69
2018-11-11T14:07:13.399Z,30.02
2018-11-11T14:13:08.459Z,33.44
2018-11-11T14:19:03.658Z,33.82
2018-11-11T14:24:58.413Z,35.73
2018-11-11T14:30:53.421Z,32.63
2018-11-11T14:36:48.441Z,32.72
2018-11-11T14:42:43.406Z,32.79
2018-11-11T14:48:38.462Z,32.76
2018-11-11T14:54:33.451Z,32.57
2018-11-11T15:00:28.446Z,32.48
2018-11-11T15:06:23.426Z,34.88
2018-11-11T15:12:18.420Z,29.94
2018-11-11T15:18:13.489Z,32.2
2018-11-11T15:24:08.457Z,33.08
2018-11-11T15:30:03.485Z,33.6
2018-11-11T15:35:58.612Z,34.19
2018-11-11T15:41:53.475Z,36.97
2018-11-11T15:47:48.442Z,36.32
2018-11-11T15:53:43.453Z,35.74
2018-11-11T15:59:38.490Z,36.32
2018-11-11T16:05:33.462Z,41
2018-11-11T16:11:28.465Z,40.33
2018-11-11T16:17:23.482Z,37.59
2018-11-11T16:23:18.529Z,37.86
2018-11-11T16:29:13.477Z,36.59
2018-11-11T16:35:08.487Z,36.77
2018-11-11T16:41:03.683Z,37.27
2018-11-11T16:46:58.474Z,39.04
2018-11-11T16:52:53.548Z,38.5
2018-11-11T16:58:48.492Z,36.98
2018-11-11T17:04:43.494Z,34.03
2018-11-11T17:10:38.500Z,38.77
2018-11-11T17:16:33.538Z,37.77
2018-11-11T17:22:28.742Z,45.87
2018-11-11T17:28:23.561Z,39.92
2018-11-11T17:34:18.510Z,40.54
2018-11-11T17:40:13.586Z,38.72
2018-11-11T17:46:08.610Z,39.02
2018-11-11T17:52:03.559Z,38.92
2018-11-11T17:57:58.534Z,36.1
2018-11-11T18:03:53.568Z,39.15
2018-11-11T18:09:48.544Z,31.66
2018-11-11T18:15:43.529Z,38.55
2018-11-11T18:21:38.545Z,38.36
2018-11-11T18:27:33.673Z,35.42
2018-11-11T18:33:28.552Z,36.44
2018-11-11T18:39:23.548Z,39.96
2018-11-11T18:45:18.573Z,55.49
2018-11-11T18:51:13.567Z,53.37
2018-11-11T18:57:08.645Z,52.45
2018-11-11T19:03:03.557Z,48.18
2018-11-11T19:08:58.597Z,46.44
2018-11-11T19:14:53.594Z,44.65
2018-11-11T19:20:48.587Z,46.82
2018-11-11T19:26:43.605Z,48.03
2018-11-11T19:32:38.616Z,47.15
2018-11-11T19:38:33.616Z,48.52
2018-11-11T19:44:28.636Z,52.27
2018-11-11T19:50:23.738Z,60.98
2018-11-11T19:56:18.597Z,68.85
2018-11-11T20:02:13.633Z,63.48
2018-11-11T20:08:08.600Z,63.08
2018-11-11T20:14:03.614Z,63
2018-11-11T20:19:58.625Z,65.35
2018-11-11T20:25:53.628Z,70.84
2018-11-11T20:31:48.668Z,74.74
2018-11-11T20:37:43.639Z,78.83
2018-11-11T20:43:38.624Z,79.13
2018-11-11T20:49:33.685Z,73.94
2018-11-11T20:55:28.635Z,64.45
2018-11-11T21:01:23.641Z,58.96
2018-11-11T21:07:18.649Z,54.91
2018-11-11T21:13:13.677Z,53.27
2018-11-11T21:19:08.696Z,44.79
2018-11-11T21:25:03.671Z,42
2018-11-11T21:30:58.700Z,38.82
2018-11-11T21:36:53.684Z,28.96
2018-11-11T21:42:48.676Z,24.45
2018-11-11T21:48:43.701Z,23.73
2018-11-11T21:54:38.658Z,27.03
2018-11-11T22:00:33.759Z,59.42
2018-11-11T22:06:28.735Z,59.57
2018-11-11T22:12:23.690Z,52.24
2018-11-11T22:18:18.713Z,51.73
2018-11-11T22:24:13.769Z,43.62
2018-11-11T22:30:08.712Z,46.6
2018-11-11T22:36:03.701Z,39.66
2018-11-11T22:41:58.695Z,34.99
2018-11-11T22:47:53.743Z,30.69
2018-11-11T22:53:48.703Z,24.53
2018-11-11T22:59:43.864Z,21.33
2018-11-11T23:05:38.739Z,17.01
2018-11-11T23:11:33.739Z,12.93
2018-11-11T23:17:28.716Z,11.41
2018-11-11T23:23:23.729Z,12.44
2018-11-11T23:29:18.716Z,16.23
2018-11-11T23:35:13.743Z,21.26
2018-11-11T23:41:08.765Z,25.7
2018-11-11T23:47:03.734Z,28.73
2018-11-11T23:52:58.761Z,26.67
2018-11-11T23:58:53.766Z,21.06
